createdAt,value
2017-05-19T10:23:07.733Z,38.20
2017-05-19T10:25:35.936Z,38.40
2017-05-19T10:28:04.913Z,38.10
2017-05-19T10:30:34.000Z,38.10
2017-05-19T10:33:03.003Z,38.20
2017-05-19T10:35:31.992Z,38.00
2017-05-19T10:38:01.407Z,38.00
2017-05-19T10:40:30.386Z,38.00
2017-05-19T10:42:59.426Z,38.00
2017-05-19T10:45:27.874Z,38.00
2017-05-19T10:47:56.905Z,37.90
2017-05-19T10:50:25.103Z,37.90
2017-05-19T10:52:54.322Z,38.10
2017-05-19T10:55:23.361Z,38.10
2017-05-19T10:57:51.634Z,38.10
2017-05-19T11:00:20.781Z,38.00
2017-05-19T11:02:49.134Z,38.00
2017-05-19T11:05:18.157Z,38.00
2017-05-19T11:07:47.333Z,37.80
2017-05-19T11:10:16.406Z,37.80
2017-05-19T11:12:45.414Z,37.80
2017-05-19T11:15:13.909Z,37.80
2017-05-19T11:17:42.958Z,37.70
2017-05-19T11:20:11.992Z,37.70
2017-05-19T11:22:40.408Z,37.70
2017-05-19T11:25:09.492Z,37.80
2017-05-19T11:27:37.805Z,37.70
2017-05-19T11:30:06.969Z,37.80
2017-05-19T11:32:35.971Z,37.80
2017-05-19T11:35:04.970Z,37.60
2017-05-19T11:37:33.384Z,37.60
2017-05-19T11:40:02.521Z,37.50
2017-05-19T11:42:30.796Z,37.40
2017-05-19T11:44:59.283Z,37.50
2017-05-19T11:47:28.338Z,37.50
2017-05-19T11:49:56.588Z,37.40
2017-05-19T11:52:25.672Z,37.40
2017-05-19T11:54:53.932Z,37.40
2017-05-19T11:57:22.876Z,37.10
2017-05-19T11:59:51.301Z,37.10
2017-05-19T12:02:20.306Z,37.20
2017-05-19T12:04:48.583Z,37.20
2017-05-19T12:07:17.653Z,37.00
2017-05-19T12:09:57.397Z,37.00
2017-05-19T12:12:26.549Z,36.90
2017-05-19T12:14:55.608Z,36.90
2017-05-19T12:17:24.629Z,36.80
2017-05-19T12:19:53.789Z,36.70
2017-05-19T12:22:22.871Z,36.70
2017-05-19T12:24:51.110Z,36.70
2017-05-19T12:27:19.492Z,36.60
2017-05-19T12:29:47.793Z,36.60
2017-05-19T12:32:16.829Z,36.40
2017-05-19T12:34:45.214Z,36.40
2017-05-19T12:37:14.257Z,36.10
2017-05-19T12:39:43.266Z,36.20
2017-05-19T12:42:11.829Z,36.20
2017-05-19T12:44:40.099Z,36.10
2017-05-19T12:47:09.043Z,36.10
2017-05-19T12:49:37.440Z,36.10
2017-05-19T12:52:06.525Z,36.10
2017-05-19T12:54:35.521Z,36.00
2017-05-19T12:57:04.753Z,35.90
2017-05-19T12:59:33.049Z,35.80
2017-05-19T13:02:02.005Z,36.00
2017-05-19T13:04:31.148Z,35.80
2017-05-19T13:07:00.173Z,35.70
2017-05-19T13:09:29.201Z,35.60
2017-05-19T13:11:57.670Z,35.60
2017-05-19T13:14:26.729Z,35.50
2017-05-19T13:16:54.976Z,35.40
2017-05-19T13:19:23.401Z,35.40
2017-05-19T13:21:52.405Z,35.30
2017-05-19T13:24:21.501Z,35.20
2017-05-19T13:26:49.892Z,35.20
2017-05-19T13:29:18.901Z,35.20
2017-05-19T13:31:47.900Z,35.10
2017-05-19T13:34:17.018Z,35.10
2017-05-19T13:36:45.238Z,35.10
2017-05-19T13:39:13.489Z,35.10
2017-05-19T13:41:41.924Z,35.10
2017-05-19T13:44:11.001Z,34.90
2017-05-19T13:46:40.000Z,34.90
2017-05-19T13:49:08.398Z,34.80
2017-05-19T13:51:37.417Z,34.70
2017-05-19T13:54:05.828Z,34.70
2017-05-19T13:56:35.000Z,34.60
2017-05-19T13:59:04.041Z,34.50
2017-05-19T14:01:33.081Z,34.50
2017-05-19T14:04:02.205Z,34.50
2017-05-19T14:06:31.177Z,34.40
2017-05-19T14:09:00.202Z,34.30
2017-05-19T14:11:28.608Z,34.20
2017-05-19T14:13:56.836Z,34.30
2017-05-19T14:16:25.828Z,34.40
2017-05-19T14:18:54.984Z,34.30
2017-05-19T14:21:23.233Z,34.30
2017-05-19T14:23:52.334Z,34.10
2017-05-19T14:26:21.525Z,34.10
2017-05-19T14:28:50.584Z,34.00
2017-05-19T14:31:18.881Z,34.00
2017-05-19T14:33:47.997Z,33.90
2017-05-19T14:36:17.068Z,33.90
2017-05-19T14:38:46.198Z,33.90
2017-05-19T14:41:15.320Z,33.80
2017-05-19T14:43:43.637Z,33.80
2017-05-19T14:46:12.024Z,33.70
2017-05-19T14:48:41.205Z,33.70
2017-05-19T14:51:10.294Z,33.60
2017-05-19T14:53:39.386Z,33.60
2017-05-19T14:56:08.489Z,33.50
2017-05-19T14:58:39.289Z,33.50
2017-05-19T15:01:08.450Z,33.40
2017-05-19T15:03:37.813Z,33.30
2017-05-19T15:06:06.818Z,33.30
2017-05-19T15:08:36.019Z,33.30
2017-05-19T15:11:04.517Z,33.30
2017-05-19T15:13:34.177Z,33.30
2017-05-19T15:16:03.361Z,33.30
2017-05-19T15:18:32.877Z,33.30
2017-05-19T15:21:03.065Z,33.30
2017-05-19T15:23:32.486Z,33.30
2017-05-19T15:26:01.357Z,33.20
2017-05-19T15:28:31.042Z,33.20
2017-05-19T15:31:00.680Z,33.10
2017-05-19T15:33:31.349Z,33.10
2017-05-19T15:36:00.601Z,33.10
2017-05-19T15:38:29.369Z,33.10
2017-05-19T15:40:59.194Z,33.00
2017-05-19T15:43:29.481Z,33.00
2017-05-19T15:45:59.558Z,32.90
2017-05-19T15:48:31.280Z,32.90
2017-05-19T15:51:00.471Z,32.90
2017-05-19T15:53:29.493Z,32.80
2017-05-19T15:55:58.741Z,32.80
2017-05-19T15:58:27.893Z,32.80
2017-05-19T16:00:57.060Z,32.70
2017-05-19T16:03:26.633Z,32.70
2017-05-19T16:05:55.666Z,32.70
2017-05-19T16:08:24.823Z,32.70
2017-05-19T16:10:54.545Z,32.70
2017-05-19T16:13:24.809Z,32.70
2017-05-19T16:15:53.361Z,32.60
2017-05-19T16:18:23.287Z,32.70
2017-05-19T16:20:52.685Z,32.60
2017-05-19T16:23:21.825Z,32.60
2017-05-19T16:25:51.465Z,32.60
2017-05-19T16:28:21.285Z,32.50
2017-05-19T16:30:51.460Z,32.50
2017-05-19T16:33:19.873Z,32.50
2017-05-19T16:35:49.923Z,32.50
2017-05-19T16:38:18.440Z,32.50
2017-05-19T16:40:48.296Z,32.40
2017-05-19T16:43:17.925Z,32.40
2017-05-19T16:45:48.973Z,32.40
2017-05-19T16:48:18.995Z,32.40
2017-05-19T16:50:47.916Z,32.40
2017-05-19T16:53:16.753Z,32.30
2017-05-19T16:55:45.856Z,32.30
2017-05-19T16:58:14.239Z,32.30
2017-05-19T17:00:44.121Z,32.20
2017-05-19T17:03:14.365Z,32.20
2017-05-19T17:05:46.869Z,32.20
2017-05-19T17:08:16.069Z,32.20
2017-05-19T17:10:44.912Z,32.20
2017-05-19T17:13:14.317Z,32.20
2017-05-19T17:15:44.474Z,32.10
2017-05-19T17:18:14.400Z,32.10
2017-05-19T17:20:44.316Z,32.20
2017-05-19T17:23:13.081Z,32.20
2017-05-19T17:25:45.296Z,32.20
2017-05-19T17:28:15.124Z,32.20
2017-05-19T17:30:43.893Z,32.20
2017-05-19T17:33:13.692Z,32.30
2017-05-19T17:35:44.017Z,32.20
2017-05-19T17:38:14.077Z,32.30
2017-05-19T17:40:44.477Z,32.20
2017-05-19T17:43:14.798Z,32.20
2017-05-19T17:45:44.642Z,32.20
2017-05-19T17:48:15.030Z,32.20
2017-05-19T17:50:44.377Z,32.30
2017-05-19T17:53:13.640Z,32.20
2017-05-19T17:55:42.929Z,32.20
2017-05-19T17:58:11.880Z,32.20
2017-05-19T18:00:41.925Z,32.10
2017-05-19T18:03:11.969Z,32.10
2017-05-19T18:05:40.993Z,32.10
2017-05-19T18:08:11.176Z,32.10
2017-05-19T18:10:40.494Z,32.00
2017-05-19T18:13:10.212Z,32.10
2017-05-19T18:15:38.654Z,32.00
2017-05-19T18:18:07.721Z,32.00
2017-05-19T18:20:36.746Z,32.00
2017-05-19T18:23:05.294Z,31.90
2017-05-19T18:25:35.258Z,31.90
2017-05-19T18:28:04.349Z,31.90
2017-05-19T18:30:33.748Z,31.90
2017-05-19T18:33:03.716Z,31.90
2017-05-19T18:35:32.621Z,31.80
2017-05-19T18:38:01.704Z,31.90
2017-05-19T18:40:31.174Z,31.80
2017-05-19T18:43:00.460Z,31.80
2017-05-19T18:45:30.154Z,31.80
2017-05-19T18:47:58.398Z,31.80
2017-05-19T18:50:27.645Z,31.80
2017-05-19T18:52:57.266Z,31.80
2017-05-19T18:55:26.874Z,31.80
2017-05-19T18:57:56.304Z,31.80
2017-05-19T19:00:25.287Z,31.80
2017-05-19T19:02:54.026Z,31.70
2017-05-19T19:05:22.334Z,31.70
2017-05-19T19:07:51.472Z,31.60
2017-05-19T19:10:20.513Z,31.50
2017-05-19T19:12:49.565Z,31.60
2017-05-19T19:15:18.704Z,31.60
2017-05-19T19:17:46.952Z,31.60
2017-05-19T19:20:16.801Z,31.60
2017-05-19T19:22:45.192Z,31.60
2017-05-19T19:25:14.185Z,31.60
2017-05-19T19:27:42.590Z,31.60
2017-05-19T19:30:11.728Z,31.60
2017-05-19T19:32:40.734Z,31.50
2017-05-19T19:35:09.078Z,31.50
2017-05-19T19:37:38.245Z,31.40
2017-05-19T19:40:07.377Z,31.40
2017-05-19T19:42:35.635Z,31.40
2017-05-19T19:45:04.823Z,31.30
2017-05-19T19:47:34.040Z,31.20
2017-05-19T19:50:02.294Z,31.20
2017-05-19T19:52:30.657Z,31.20
2017-05-19T19:54:59.751Z,31.20
2017-05-19T19:57:28.094Z,31.20
2017-05-19T19:59:56.490Z,31.20
2017-05-19T20:02:25.450Z,31.10
2017-05-19T20:04:53.758Z,31.10
2017-05-19T20:07:22.917Z,31.00
2017-05-19T20:09:51.228Z,30.90
2017-05-19T20:12:19.460Z,31.00
2017-05-19T20:14:48.602Z,30.90
2017-05-19T20:17:16.805Z,30.90
2017-05-19T20:19:45.050Z,30.80
2017-05-19T20:22:13.457Z,30.80
2017-05-19T20:24:41.649Z,30.80
2017-05-19T20:27:10.688Z,30.70
2017-05-19T20:29:39.829Z,30.80
2017-05-19T20:32:08.856Z,30.50
2017-05-19T20:34:37.885Z,30.60
2017-05-19T20:37:07.881Z,30.50
2017-05-19T20:39:36.944Z,30.60
2017-05-19T20:42:05.266Z,30.60
2017-05-19T20:44:33.717Z,30.60
2017-05-19T20:47:02.741Z,30.50
2017-05-19T20:49:36.880Z,30.50
2017-05-19T20:52:07.704Z,30.40
2017-05-19T20:54:41.098Z,30.30
2017-05-19T20:57:09.605Z,30.30
2017-05-19T20:59:38.742Z,30.20
2017-05-19T21:02:07.721Z,30.30
2017-05-19T21:04:36.230Z,30.30
2017-05-19T21:07:05.256Z,30.20
2017-05-19T21:09:33.692Z,30.10
2017-05-19T21:12:02.744Z,30.20
2017-05-19T21:14:31.725Z,30.20
2017-05-19T21:17:00.934Z,30.20
2017-05-19T21:19:30.029Z,30.20
2017-05-19T21:21:58.332Z,30.20
2017-05-19T21:24:27.507Z,30.10
2017-05-19T21:26:56.577Z,30.10
2017-05-19T21:29:25.629Z,30.10
2017-05-19T21:31:54.840Z,30.00
2017-05-19T21:34:23.833Z,30.00
2017-05-19T21:36:52.920Z,30.00
2017-05-19T21:39:21.471Z,30.00
2017-05-19T21:41:49.753Z,30.00
2017-05-19T21:44:18.793Z,30.00
2017-05-19T21:46:47.186Z,30.00
2017-05-19T21:49:15.441Z,30.00
2017-05-19T21:51:43.653Z,30.00
2017-05-19T21:54:12.829Z,29.90
2017-05-19T21:56:42.525Z,29.90
2017-05-19T21:59:11.552Z,29.90
2017-05-19T22:01:40.161Z,29.90
2017-05-19T22:04:08.500Z,29.90
2017-05-19T22:06:37.444Z,29.80
2017-05-19T22:09:06.677Z,29.80
2017-05-19T22:11:35.717Z,29.80
2017-05-19T22:14:04.780Z,29.80
2017-05-19T22:16:33.174Z,29.70
2017-05-19T22:19:02.217Z,29.70
2017-05-19T22:21:31.292Z,29.80
2017-05-19T22:23:59.677Z,29.70
2017-05-19T22:26:28.712Z,29.70
2017-05-19T22:28:57.793Z,29.70
2017-05-19T22:31:26.893Z,29.70
2017-05-19T22:33:55.841Z,29.70
2017-05-19T22:36:24.776Z,29.60
2017-05-19T22:38:53.153Z,29.60
2017-05-19T22:41:21.396Z,29.50
2017-05-19T22:43:49.637Z,29.50
2017-05-19T22:46:18.807Z,29.50
2017-05-19T22:48:47.853Z,29.50
2017-05-19T22:51:16.897Z,29.60
2017-05-19T22:53:46.040Z,29.50
2017-05-19T22:56:15.085Z,29.50
2017-05-19T22:58:43.394Z,29.50
2017-05-19T23:01:12.568Z,29.40
2017-05-19T23:03:41.685Z,29.40
2017-05-19T23:06:10.715Z,29.40
2017-05-19T23:08:39.134Z,29.40
2017-05-19T23:11:08.204Z,29.40
2017-05-19T23:13:37.250Z,29.40
2017-05-19T23:16:05.634Z,29.30
2017-05-19T23:18:34.673Z,29.30
2017-05-19T23:21:03.665Z,29.10
2017-05-19T23:23:32.008Z,29.10
2017-05-19T23:26:01.036Z,29.10
2017-05-19T23:28:30.055Z,29.00
2017-05-19T23:30:58.497Z,29.00
2017-05-19T23:33:27.453Z,28.90
2017-05-19T23:35:55.717Z,28.90
2017-05-19T23:38:24.125Z,29.00
2017-05-19T23:40:53.159Z,28.90
2017-05-19T23:43:21.464Z,28.90
2017-05-19T23:45:50.629Z,28.90
2017-05-19T23:48:18.928Z,28.90
2017-05-19T23:50:47.953Z,28.90
2017-05-19T23:53:17.152Z,28.90
2017-05-19T23:55:45.409Z,28.80
2017-05-19T23:58:14.357Z,28.70
